<?xml version="1.0" encoding="UTF-8"?>
<gpx version="1.1" creator="GPSBabel - http://www.gpsbabel.org" xmlns="http://www.topografix.com/GPX/1/1" xmlns:xsi="http://www.w3.org/2001/XMLSchema-instance">
  <metadata>
    <name>Vallée du Petit Morin - Orly et le Moulin de Coton</name>
    <time>2025-08-04T10:04:38.228Z</time>
    <bounds minlat="48.876422000" minlon="3.229381000" maxlat="48.912093000" maxlon="3.293516000"/>
  </metadata>
  <wpt lat="48.904443000" lon="3.229381000">
    <ele>84.000000</ele>
    <time>2025-07-29T16:21:18Z</time>
    <name>Point de passage 1</name>
    <cmt>Point de passage 1</cmt>
    <desc>Point de passage 1</desc>
    <type>GENERIC</type>
  </wpt>
  <wpt lat="48.905981000" lon="3.244852000">
    <ele>158.000000</ele>
    <time>2025-07-29T16:56:56Z</time>
    <name>Jonction avec une route</name>
    <cmt>Jonction avec une route</cmt>
    <desc>Jonction avec une route</desc>
    <type>GENERIC</type>
  </wpt>
  <wpt lat="48.912093000" lon="3.260022000">
    <ele>179.000000</ele>
    <time>2025-07-29T17:24:05Z</time>
    <name>Petit Villiers</name>
    <cmt>Petit Villiers</cmt>
    <desc>Petit Villiers</desc>
    <type>GENERIC</type>
  </wpt>
  <wpt lat="48.901733000" lon="3.260042000">
    <ele>186.000000</ele>
    <time>2025-07-29T17:46:53Z</time>
    <name>Entrée de Boitron</name>
    <cmt>Entrée de Boitron</cmt>
    <desc>Entrée de Boitron</desc>
    <type>GENERIC</type>
  </wpt>
  <wpt lat="48.898250000" lon="3.260916000">
    <ele>185.000000</ele>
    <time>2025-07-29T17:54:40Z</time>
    <name>Boitron : Rue des Moines</name>
    <cmt>Boitron : Rue des Moines</cmt>
    <desc>Boitron : Rue des Moines</desc>
    <type>GENERIC</type>
  </wpt>
  <wpt lat="48.898193000" lon="3.278581000">
    <ele>181.000000</ele>
    <time>2025-07-29T18:18:47Z</time>
    <name>Fin de portion goudronnée</name>
    <cmt>Fin de portion goudronnée</cmt>
    <desc>Fin de portion goudronnée</desc>
    <type>GENERIC</type>
  </wpt>
  <wpt lat="48.893523000" lon="3.277508000">
    <ele>165.000000</ele>
    <time>2025-07-29T18:27:59Z</time>
    <name>Jonction avec une route</name>
    <cmt>Jonction avec une route</cmt>
    <desc>Jonction avec une route</desc>
    <type>GENERIC</type>
  </wpt>
  <wpt lat="48.890457000" lon="3.285472000">
    <ele>160.000000</ele>
    <time>2025-07-29T18:40:17Z</time>
    <name>Marlande</name>
    <cmt>Marlande</cmt>
    <desc>Marlande</desc>
    <type>GENERIC</type>
  </wpt>
  <wpt lat="48.885180000" lon="3.290579000">
    <ele>142.000000</ele>
    <time>2025-07-29T18:56:01Z</time>
    <name>Le Jariel</name>
    <cmt>Le Jariel</cmt>
    <desc>Le Jariel</desc>
    <type>GENERIC</type>
  </wpt>
  <wpt lat="48.881144000" lon="3.288519000">
    <ele>98.000000</ele>
    <time>2025-07-29T19:04:13Z</time>
    <name>Croisement en T</name>
    <cmt>Croisement en T</cmt>
    <desc>Croisement en T</desc>
    <type>GENERIC</type>
  </wpt>
  <wpt lat="48.877833000" lon="3.293516000">
    <ele>80.000000</ele>
    <time>2025-07-29T19:13:19Z</time>
    <name>Entrée de Sablonnières</name>
    <cmt>Entrée de Sablonnières</cmt>
    <desc>Entrée de Sablonnières</desc>
    <type>GENERIC</type>
  </wpt>
  <wpt lat="48.876422000" lon="3.289664000">
    <ele>85.000000</ele>
    <time>2025-07-29T19:20:13Z</time>
    <name>La Chenée</name>
    <cmt>La Chenée</cmt>
    <desc>La Chenée</desc>
    <type>GENERIC</type>
  </wpt>
  <wpt lat="48.881412000" lon="3.274346000">
    <ele>85.000000</ele>
    <time>2025-07-29T19:45:12Z</time>
    <name>Plateforme de l'ancienne voie ferrée</name>
    <cmt>Plateforme de l'ancienne voie ferrée</cmt>
    <desc>Plateforme de l'ancienne voie ferrée</desc>
    <type>GENERIC</type>
  </wpt>
  <wpt lat="48.885786000" lon="3.267619000">
    <ele>81.000000</ele>
    <time>2025-07-29T19:57:19Z</time>
    <name>La Forge</name>
    <cmt>La Forge</cmt>
    <desc>La Forge</desc>
    <type>GENERIC</type>
  </wpt>
  <wpt lat="48.886139000" lon="3.252878000">
    <ele>74.000000</ele>
    <time>2025-07-29T20:16:36Z</time>
    <name>Moulin de Coton</name>
    <cmt>Moulin de Coton</cmt>
    <desc>Moulin de Coton</desc>
    <type>GENERIC</type>
  </wpt>
  <wpt lat="48.895423000" lon="3.237825000">
    <ele>72.000000</ele>
    <time>2025-07-29T20:44:36Z</time>
    <name>Le Moulin du Pont</name>
    <cmt>Le Moulin du Pont</cmt>
    <desc>Le Moulin du Pont</desc>
    <type>GENERIC</type>
  </wpt>
  <wpt lat="48.898357000" lon="3.237356000">
    <ele>70.000000</ele>
    <time>2025-07-29T20:50:52Z</time>
    <name>Petite route</name>
    <cmt>Petite route</cmt>
    <desc>Petite route</desc>
    <type>GENERIC</type>
  </wpt>
  <wpt lat="48.904464000" lon="3.229392000">
    <ele>84.000000</ele>
    <time>2025-07-29T21:09:57Z</time>
    <name>Point de passage 18</name>
    <cmt>Point de passage 18</cmt>
    <desc>Point de passage 18</desc>
    <type>GENERIC</type>
  </wpt>
  <trk>
    <name>randogps77-331</name>
    <trkseg>
      <trkpt lat="48.904443000" lon="3.229381000">
        <ele>84.000000</ele>
        <time>2025-07-29T16:21:18Z</time>
      </trkpt>
      <trkpt lat="48.904020000" lon="3.230390000">
        <ele>82.000000</ele>
        <time>2025-07-29T16:22:48Z</time>
      </trkpt>
      <trkpt lat="48.903814000" lon="3.230866000">
        <ele>83.000000</ele>
        <time>2025-07-29T16:23:41Z</time>
      </trkpt>
      <trkpt lat="48.903597000" lon="3.231313000">
        <ele>85.000000</ele>
        <time>2025-07-29T16:24:43Z</time>
      </trkpt>
      <trkpt lat="48.903526000" lon="3.231742000">
        <ele>86.000000</ele>
        <time>2025-07-29T16:25:27Z</time>
      </trkpt>
      <trkpt lat="48.903978000" lon="3.232471000">
        <ele>88.000000</ele>
        <time>2025-07-29T16:27:03Z</time>
      </trkpt>
      <trkpt lat="48.904217000" lon="3.232815000">
        <ele>89.000000</ele>
        <time>2025-07-29T16:27:51Z</time>
      </trkpt>
      <trkpt lat="48.904725000" lon="3.233287000">
        <ele>89.000000</ele>
        <time>2025-07-29T16:28:59Z</time>
      </trkpt>
      <trkpt lat="48.904880000" lon="3.233673000">
        <ele>90.000000</ele>
        <time>2025-07-29T16:29:43Z</time>
      </trkpt>
      <trkpt lat="48.904923000" lon="3.234102000">
        <ele>92.000000</ele>
        <time>2025-07-29T16:30:36Z</time>
      </trkpt>
      <trkpt lat="48.904951000" lon="3.234381000">
        <ele>93.000000</ele>
        <time>2025-07-29T16:31:08Z</time>
      </trkpt>
      <trkpt lat="48.904838000" lon="3.234960000">
        <ele>97.000000</ele>
        <time>2025-07-29T16:32:35Z</time>
      </trkpt>
      <trkpt lat="48.904824000" lon="3.235368000">
        <ele>99.000000</ele>
        <time>2025-07-29T16:33:26Z</time>
      </trkpt>
      <trkpt lat="48.905064000" lon="3.235969000">
        <ele>101.000000</ele>
        <time>2025-07-29T16:34:39Z</time>
      </trkpt>
      <trkpt lat="48.905501000" lon="3.236677000">
        <ele>103.000000</ele>
        <time>2025-07-29T16:36:13Z</time>
      </trkpt>
      <trkpt lat="48.906051000" lon="3.237793000">
        <ele>107.000000</ele>
        <time>2025-07-29T16:38:39Z</time>
      </trkpt>
      <trkpt lat="48.906375000" lon="3.238887000">
        <ele>115.000000</ele>
        <time>2025-07-29T16:41:32Z</time>
      </trkpt>
      <trkpt lat="48.906446000" lon="3.239359000">
        <ele>117.000000</ele>
        <time>2025-07-29T16:42:29Z</time>
      </trkpt>
      <trkpt lat="48.906375000" lon="3.239960000">
        <ele>121.000000</ele>
        <time>2025-07-29T16:43:56Z</time>
      </trkpt>
      <trkpt lat="48.906277000" lon="3.240325000">
        <ele>124.000000</ele>
        <time>2025-07-29T16:44:57Z</time>
      </trkpt>
      <trkpt lat="48.906277000" lon="3.241119000">
        <ele>130.000000</ele>
        <time>2025-07-29T16:46:58Z</time>
      </trkpt>
      <trkpt lat="48.906333000" lon="3.242106000">
        <ele>138.000000</ele>
        <time>2025-07-29T16:49:35Z</time>
      </trkpt>
      <trkpt lat="48.906615000" lon="3.243522000">
        <ele>146.000000</ele>
        <time>2025-07-29T16:52:49Z</time>
      </trkpt>
      <trkpt lat="48.905981000" lon="3.244852000">
        <ele>158.000000</ele>
        <time>2025-07-29T16:56:56Z</time>
      </trkpt>
      <trkpt lat="48.907095000" lon="3.247942000">
        <ele>163.000000</ele>
        <time>2025-07-29T17:02:13Z</time>
      </trkpt>
      <trkpt lat="48.907349000" lon="3.248500000">
        <ele>164.000000</ele>
        <time>2025-07-29T17:03:14Z</time>
      </trkpt>
      <trkpt lat="48.907532000" lon="3.248758000">
        <ele>164.000000</ele>
        <time>2025-07-29T17:03:43Z</time>
      </trkpt>
      <trkpt lat="48.907941000" lon="3.250260000">
        <ele>165.000000</ele>
        <time>2025-07-29T17:05:56Z</time>
      </trkpt>
      <trkpt lat="48.907870000" lon="3.251633000">
        <ele>170.000000</ele>
        <time>2025-07-29T17:08:31Z</time>
      </trkpt>
      <trkpt lat="48.908561000" lon="3.253586000">
        <ele>173.000000</ele>
        <time>2025-07-29T17:11:49Z</time>
      </trkpt>
      <trkpt lat="48.908604000" lon="3.254251000">
        <ele>175.000000</ele>
        <time>2025-07-29T17:13:00Z</time>
      </trkpt>
      <trkpt lat="48.910014000" lon="3.255388000">
        <ele>175.000000</ele>
        <time>2025-07-29T17:16:03Z</time>
      </trkpt>
      <trkpt lat="48.910725000" lon="3.256138000">
        <ele>175.000000</ele>
        <time>2025-07-29T17:17:42Z</time>
      </trkpt>
      <trkpt lat="48.910951000" lon="3.256610000">
        <ele>176.000000</ele>
        <time>2025-07-29T17:18:36Z</time>
      </trkpt>
      <trkpt lat="48.911036000" lon="3.257275000">
        <ele>176.000000</ele>
        <time>2025-07-29T17:19:27Z</time>
      </trkpt>
      <trkpt lat="48.911036000" lon="3.257919000">
        <ele>176.000000</ele>
        <time>2025-07-29T17:20:15Z</time>
      </trkpt>
      <trkpt lat="48.911148000" lon="3.258262000">
        <ele>177.000000</ele>
        <time>2025-07-29T17:20:54Z</time>
      </trkpt>
      <trkpt lat="48.911501000" lon="3.258841000">
        <ele>177.000000</ele>
        <time>2025-07-29T17:21:53Z</time>
      </trkpt>
      <trkpt lat="48.911713000" lon="3.259163000">
        <ele>177.000000</ele>
        <time>2025-07-29T17:22:27Z</time>
      </trkpt>
      <trkpt lat="48.912093000" lon="3.260022000">
        <ele>179.000000</ele>
        <time>2025-07-29T17:24:05Z</time>
      </trkpt>
      <trkpt lat="48.911656000" lon="3.259786000">
        <ele>179.000000</ele>
        <time>2025-07-29T17:24:58Z</time>
      </trkpt>
      <trkpt lat="48.910979000" lon="3.259635000">
        <ele>179.000000</ele>
        <time>2025-07-29T17:26:16Z</time>
      </trkpt>
      <trkpt lat="48.910514000" lon="3.259163000">
        <ele>180.000000</ele>
        <time>2025-07-29T17:27:30Z</time>
      </trkpt>
      <trkpt lat="48.910063000" lon="3.258863000">
        <ele>181.000000</ele>
        <time>2025-07-29T17:28:37Z</time>
      </trkpt>
      <trkpt lat="48.909142000" lon="3.258572000">
        <ele>183.000000</ele>
        <time>2025-07-29T17:30:45Z</time>
      </trkpt>
      <trkpt lat="48.907590000" lon="3.258143000">
        <ele>179.000000</ele>
        <time>2025-07-29T17:33:46Z</time>
      </trkpt>
      <trkpt lat="48.905700000" lon="3.259023000">
        <ele>180.000000</ele>
        <time>2025-07-29T17:37:43Z</time>
      </trkpt>
      <trkpt lat="48.904614000" lon="3.258788000">
        <ele>180.000000</ele>
        <time>2025-07-29T17:39:49Z</time>
      </trkpt>
      <trkpt lat="48.903849000" lon="3.258540000">
        <ele>180.000000</ele>
        <time>2025-07-29T17:41:19Z</time>
      </trkpt>
      <trkpt lat="48.903355000" lon="3.258647000">
        <ele>181.000000</ele>
        <time>2025-07-29T17:42:26Z</time>
      </trkpt>
      <trkpt lat="48.902735000" lon="3.259055000">
        <ele>182.000000</ele>
        <time>2025-07-29T17:43:54Z</time>
      </trkpt>
      <trkpt lat="48.902128000" lon="3.259527000">
        <ele>184.000000</ele>
        <time>2025-07-29T17:45:33Z</time>
      </trkpt>
      <trkpt lat="48.901733000" lon="3.260042000">
        <ele>186.000000</ele>
        <time>2025-07-29T17:46:53Z</time>
      </trkpt>
      <trkpt lat="48.901366000" lon="3.260836000">
        <ele>188.000000</ele>
        <time>2025-07-29T17:48:27Z</time>
      </trkpt>
      <trkpt lat="48.901014000" lon="3.261114000">
        <ele>188.000000</ele>
        <time>2025-07-29T17:49:12Z</time>
      </trkpt>
      <trkpt lat="48.900548000" lon="3.261093000">
        <ele>189.000000</ele>
        <time>2025-07-29T17:50:16Z</time>
      </trkpt>
      <trkpt lat="48.899177000" lon="3.261075000">
        <ele>187.000000</ele>
        <time>2025-07-29T17:52:53Z</time>
      </trkpt>
      <trkpt lat="48.898250000" lon="3.260916000">
        <ele>185.000000</ele>
        <time>2025-07-29T17:54:40Z</time>
      </trkpt>
      <trkpt lat="48.898165000" lon="3.261731000">
        <ele>185.000000</ele>
        <time>2025-07-29T17:55:42Z</time>
      </trkpt>
      <trkpt lat="48.898672000" lon="3.261844000">
        <ele>186.000000</ele>
        <time>2025-07-29T17:56:51Z</time>
      </trkpt>
      <trkpt lat="48.898207000" lon="3.265771000">
        <ele>181.000000</ele>
        <time>2025-07-29T18:01:51Z</time>
      </trkpt>
      <trkpt lat="48.898277000" lon="3.266565000">
        <ele>181.000000</ele>
        <time>2025-07-29T18:02:51Z</time>
      </trkpt>
      <trkpt lat="48.898277000" lon="3.267981000">
        <ele>183.000000</ele>
        <time>2025-07-29T18:04:58Z</time>
      </trkpt>
      <trkpt lat="48.898531000" lon="3.269268000">
        <ele>182.000000</ele>
        <time>2025-07-29T18:06:39Z</time>
      </trkpt>
      <trkpt lat="48.898658000" lon="3.269655000">
        <ele>182.000000</ele>
        <time>2025-07-29T18:07:12Z</time>
      </trkpt>
      <trkpt lat="48.898813000" lon="3.271929000">
        <ele>181.000000</ele>
        <time>2025-07-29T18:10:04Z</time>
      </trkpt>
      <trkpt lat="48.898954000" lon="3.273946000">
        <ele>181.000000</ele>
        <time>2025-07-29T18:12:37Z</time>
      </trkpt>
      <trkpt lat="48.898898000" lon="3.274354000">
        <ele>180.000000</ele>
        <time>2025-07-29T18:13:08Z</time>
      </trkpt>
      <trkpt lat="48.898785000" lon="3.275041000">
        <ele>181.000000</ele>
        <time>2025-07-29T18:14:12Z</time>
      </trkpt>
      <trkpt lat="48.898193000" lon="3.278581000">
        <ele>181.000000</ele>
        <time>2025-07-29T18:18:47Z</time>
      </trkpt>
      <trkpt lat="48.897685000" lon="3.278409000">
        <ele>181.000000</ele>
        <time>2025-07-29T18:19:47Z</time>
      </trkpt>
      <trkpt lat="48.897205000" lon="3.278495000">
        <ele>180.000000</ele>
        <time>2025-07-29T18:20:42Z</time>
      </trkpt>
      <trkpt lat="48.896486000" lon="3.278710000">
        <ele>180.000000</ele>
        <time>2025-07-29T18:22:06Z</time>
      </trkpt>
      <trkpt lat="48.896077000" lon="3.278710000">
        <ele>178.000000</ele>
        <time>2025-07-29T18:22:53Z</time>
      </trkpt>
      <trkpt lat="48.895258000" lon="3.278366000">
        <ele>175.000000</ele>
        <time>2025-07-29T18:24:30Z</time>
      </trkpt>
      <trkpt lat="48.893523000" lon="3.277508000">
        <ele>165.000000</ele>
        <time>2025-07-29T18:27:59Z</time>
      </trkpt>
      <trkpt lat="48.893015000" lon="3.278560000">
        <ele>163.000000</ele>
        <time>2025-07-29T18:29:37Z</time>
      </trkpt>
      <trkpt lat="48.892592000" lon="3.279654000">
        <ele>162.000000</ele>
        <time>2025-07-29T18:31:13Z</time>
      </trkpt>
      <trkpt lat="48.892291000" lon="3.280751000">
        <ele>163.000000</ele>
        <time>2025-07-29T18:32:53Z</time>
      </trkpt>
      <trkpt lat="48.891802000" lon="3.280813000">
        <ele>161.000000</ele>
        <time>2025-07-29T18:33:49Z</time>
      </trkpt>
      <trkpt lat="48.891444000" lon="3.282596000">
        <ele>161.000000</ele>
        <time>2025-07-29T18:36:09Z</time>
      </trkpt>
      <trkpt lat="48.891106000" lon="3.283541000">
        <ele>160.000000</ele>
        <time>2025-07-29T18:37:30Z</time>
      </trkpt>
      <trkpt lat="48.890936000" lon="3.284399000">
        <ele>160.000000</ele>
        <time>2025-07-29T18:38:37Z</time>
      </trkpt>
      <trkpt lat="48.890569000" lon="3.284957000">
        <ele>160.000000</ele>
        <time>2025-07-29T18:39:36Z</time>
      </trkpt>
      <trkpt lat="48.890457000" lon="3.285472000">
        <ele>160.000000</ele>
        <time>2025-07-29T18:40:17Z</time>
      </trkpt>
      <trkpt lat="48.889977000" lon="3.285300000">
        <ele>156.000000</ele>
        <time>2025-07-29T18:41:13Z</time>
      </trkpt>
      <trkpt lat="48.889441000" lon="3.285300000">
        <ele>153.000000</ele>
        <time>2025-07-29T18:42:14Z</time>
      </trkpt>
      <trkpt lat="48.888143000" lon="3.284227000">
        <ele>143.000000</ele>
        <time>2025-07-29T18:45:03Z</time>
      </trkpt>
      <trkpt lat="48.887852000" lon="3.284375000">
        <ele>143.000000</ele>
        <time>2025-07-29T18:45:38Z</time>
      </trkpt>
      <trkpt lat="48.887466000" lon="3.284914000">
        <ele>142.000000</ele>
        <time>2025-07-29T18:46:38Z</time>
      </trkpt>
      <trkpt lat="48.886816000" lon="3.286716000">
        <ele>144.000000</ele>
        <time>2025-07-29T18:49:33Z</time>
      </trkpt>
      <trkpt lat="48.886139000" lon="3.288733000">
        <ele>145.000000</ele>
        <time>2025-07-29T18:52:34Z</time>
      </trkpt>
      <trkpt lat="48.885406000" lon="3.289034000">
        <ele>142.000000</ele>
        <time>2025-07-29T18:54:01Z</time>
      </trkpt>
      <trkpt lat="48.885377000" lon="3.289720000">
        <ele>142.000000</ele>
        <time>2025-07-29T18:54:53Z</time>
      </trkpt>
      <trkpt lat="48.885180000" lon="3.290579000">
        <ele>142.000000</ele>
        <time>2025-07-29T18:56:01Z</time>
      </trkpt>
      <trkpt lat="48.884474000" lon="3.290235000">
        <ele>137.000000</ele>
        <time>2025-07-29T18:57:26Z</time>
      </trkpt>
      <trkpt lat="48.884234000" lon="3.289924000">
        <ele>135.000000</ele>
        <time>2025-07-29T18:58:02Z</time>
      </trkpt>
      <trkpt lat="48.883966000" lon="3.289763000">
        <ele>132.000000</ele>
        <time>2025-07-29T18:58:35Z</time>
      </trkpt>
      <trkpt lat="48.883317000" lon="3.289656000">
        <ele>125.000000</ele>
        <time>2025-07-29T18:59:50Z</time>
      </trkpt>
      <trkpt lat="48.882202000" lon="3.289141000">
        <ele>112.000000</ele>
        <time>2025-07-29T19:02:03Z</time>
      </trkpt>
      <trkpt lat="48.881144000" lon="3.288519000">
        <ele>98.000000</ele>
        <time>2025-07-29T19:04:13Z</time>
      </trkpt>
      <trkpt lat="48.880580000" lon="3.289935000">
        <ele>94.000000</ele>
        <time>2025-07-29T19:06:18Z</time>
      </trkpt>
      <trkpt lat="48.880156000" lon="3.290643000">
        <ele>91.000000</ele>
        <time>2025-07-29T19:07:30Z</time>
      </trkpt>
      <trkpt lat="48.879592000" lon="3.291630000">
        <ele>85.000000</ele>
        <time>2025-07-29T19:09:08Z</time>
      </trkpt>
      <trkpt lat="48.878773000" lon="3.292252000">
        <ele>81.000000</ele>
        <time>2025-07-29T19:10:53Z</time>
      </trkpt>
      <trkpt lat="48.878576000" lon="3.292338000">
        <ele>80.000000</ele>
        <time>2025-07-29T19:11:16Z</time>
      </trkpt>
      <trkpt lat="48.877833000" lon="3.293516000">
        <ele>80.000000</ele>
        <time>2025-07-29T19:13:19Z</time>
      </trkpt>
      <trkpt lat="48.877094000" lon="3.291523000">
        <ele>77.000000</ele>
        <time>2025-07-29T19:16:11Z</time>
      </trkpt>
      <trkpt lat="48.876422000" lon="3.289664000">
        <ele>85.000000</ele>
        <time>2025-07-29T19:20:13Z</time>
      </trkpt>
      <trkpt lat="48.876464000" lon="3.289546000">
        <ele>85.000000</ele>
        <time>2025-07-29T19:20:23Z</time>
      </trkpt>
      <trkpt lat="48.876685000" lon="3.288733000">
        <ele>81.000000</ele>
        <time>2025-07-29T19:21:29Z</time>
      </trkpt>
      <trkpt lat="48.876812000" lon="3.287896000">
        <ele>79.000000</ele>
        <time>2025-07-29T19:22:34Z</time>
      </trkpt>
      <trkpt lat="48.876770000" lon="3.285987000">
        <ele>81.000000</ele>
        <time>2025-07-29T19:25:18Z</time>
      </trkpt>
      <trkpt lat="48.876831000" lon="3.284600000">
        <ele>81.000000</ele>
        <time>2025-07-29T19:27:03Z</time>
      </trkpt>
      <trkpt lat="48.876939000" lon="3.283154000">
        <ele>82.000000</ele>
        <time>2025-07-29T19:29:03Z</time>
      </trkpt>
      <trkpt lat="48.877009000" lon="3.282439000">
        <ele>83.000000</ele>
        <time>2025-07-29T19:30:08Z</time>
      </trkpt>
      <trkpt lat="48.877221000" lon="3.281652000">
        <ele>82.000000</ele>
        <time>2025-07-29T19:31:12Z</time>
      </trkpt>
      <trkpt lat="48.877616000" lon="3.280601000">
        <ele>79.000000</ele>
        <time>2025-07-29T19:32:43Z</time>
      </trkpt>
      <trkpt lat="48.878054000" lon="3.279807000">
        <ele>79.000000</ele>
        <time>2025-07-29T19:34:01Z</time>
      </trkpt>
      <trkpt lat="48.878110000" lon="3.279528000">
        <ele>79.000000</ele>
        <time>2025-07-29T19:34:23Z</time>
      </trkpt>
      <trkpt lat="48.878519000" lon="3.278316000">
        <ele>78.000000</ele>
        <time>2025-07-29T19:36:06Z</time>
      </trkpt>
      <trkpt lat="48.879042000" lon="3.277607000">
        <ele>77.000000</ele>
        <time>2025-07-29T19:37:26Z</time>
      </trkpt>
      <trkpt lat="48.879846000" lon="3.276556000">
        <ele>81.000000</ele>
        <time>2025-07-29T19:40:09Z</time>
      </trkpt>
      <trkpt lat="48.880354000" lon="3.276277000">
        <ele>80.000000</ele>
        <time>2025-07-29T19:41:11Z</time>
      </trkpt>
      <trkpt lat="48.880777000" lon="3.275676000">
        <ele>80.000000</ele>
        <time>2025-07-29T19:42:17Z</time>
      </trkpt>
      <trkpt lat="48.881412000" lon="3.274346000">
        <ele>85.000000</ele>
        <time>2025-07-29T19:45:12Z</time>
      </trkpt>
      <trkpt lat="48.881864000" lon="3.273820000">
        <ele>84.000000</ele>
        <time>2025-07-29T19:46:17Z</time>
      </trkpt>
      <trkpt lat="48.882837000" lon="3.272683000">
        <ele>85.000000</ele>
        <time>2025-07-29T19:48:48Z</time>
      </trkpt>
      <trkpt lat="48.883529000" lon="3.271546000">
        <ele>84.000000</ele>
        <time>2025-07-29T19:50:45Z</time>
      </trkpt>
      <trkpt lat="48.884248000" lon="3.270044000">
        <ele>84.000000</ele>
        <time>2025-07-29T19:53:05Z</time>
      </trkpt>
      <trkpt lat="48.885363000" lon="3.268434000">
        <ele>84.000000</ele>
        <time>2025-07-29T19:56:01Z</time>
      </trkpt>
      <trkpt lat="48.885786000" lon="3.267619000">
        <ele>81.000000</ele>
        <time>2025-07-29T19:57:19Z</time>
      </trkpt>
      <trkpt lat="48.885857000" lon="3.267125000">
        <ele>83.000000</ele>
        <time>2025-07-29T19:58:18Z</time>
      </trkpt>
      <trkpt lat="48.886055000" lon="3.266439000">
        <ele>82.000000</ele>
        <time>2025-07-29T19:59:14Z</time>
      </trkpt>
      <trkpt lat="48.885998000" lon="3.264529000">
        <ele>82.000000</ele>
        <time>2025-07-29T20:01:38Z</time>
      </trkpt>
      <trkpt lat="48.885928000" lon="3.262512000">
        <ele>82.000000</ele>
        <time>2025-07-29T20:04:10Z</time>
      </trkpt>
      <trkpt lat="48.885885000" lon="3.259572000">
        <ele>80.000000</ele>
        <time>2025-07-29T20:07:51Z</time>
      </trkpt>
      <trkpt lat="48.886196000" lon="3.257963000">
        <ele>77.000000</ele>
        <time>2025-07-29T20:09:57Z</time>
      </trkpt>
      <trkpt lat="48.886365000" lon="3.256268000">
        <ele>75.000000</ele>
        <time>2025-07-29T20:12:06Z</time>
      </trkpt>
      <trkpt lat="48.886449000" lon="3.255510000">
        <ele>73.000000</ele>
        <time>2025-07-29T20:13:04Z</time>
      </trkpt>
      <trkpt lat="48.886379000" lon="3.254616000">
        <ele>74.000000</ele>
        <time>2025-07-29T20:14:22Z</time>
      </trkpt>
      <trkpt lat="48.886139000" lon="3.252878000">
        <ele>74.000000</ele>
        <time>2025-07-29T20:16:36Z</time>
      </trkpt>
      <trkpt lat="48.886097000" lon="3.252523000">
        <ele>74.000000</ele>
        <time>2025-07-29T20:17:03Z</time>
      </trkpt>
      <trkpt lat="48.886577000" lon="3.249798000">
        <ele>74.000000</ele>
        <time>2025-07-29T20:20:35Z</time>
      </trkpt>
      <trkpt lat="48.886802000" lon="3.248811000">
        <ele>74.000000</ele>
        <time>2025-07-29T20:21:54Z</time>
      </trkpt>
      <trkpt lat="48.887099000" lon="3.247266000">
        <ele>73.000000</ele>
        <time>2025-07-29T20:23:55Z</time>
      </trkpt>
      <trkpt lat="48.887832000" lon="3.246193000">
        <ele>72.000000</ele>
        <time>2025-07-29T20:25:51Z</time>
      </trkpt>
      <trkpt lat="48.888820000" lon="3.244327000">
        <ele>72.000000</ele>
        <time>2025-07-29T20:28:51Z</time>
      </trkpt>
      <trkpt lat="48.889215000" lon="3.243619000">
        <ele>73.000000</ele>
        <time>2025-07-29T20:30:11Z</time>
      </trkpt>
      <trkpt lat="48.889723000" lon="3.243297000">
        <ele>73.000000</ele>
        <time>2025-07-29T20:31:14Z</time>
      </trkpt>
      <trkpt lat="48.890711000" lon="3.242331000">
        <ele>73.000000</ele>
        <time>2025-07-29T20:33:28Z</time>
      </trkpt>
      <trkpt lat="48.892164000" lon="3.241408000">
        <ele>73.000000</ele>
        <time>2025-07-29T20:36:28Z</time>
      </trkpt>
      <trkpt lat="48.892911000" lon="3.241022000">
        <ele>71.000000</ele>
        <time>2025-07-29T20:37:58Z</time>
      </trkpt>
      <trkpt lat="48.893433000" lon="3.240614000">
        <ele>72.000000</ele>
        <time>2025-07-29T20:39:15Z</time>
      </trkpt>
      <trkpt lat="48.893955000" lon="3.239735000">
        <ele>72.000000</ele>
        <time>2025-07-29T20:40:44Z</time>
      </trkpt>
      <trkpt lat="48.894435000" lon="3.238941000">
        <ele>73.000000</ele>
        <time>2025-07-29T20:42:15Z</time>
      </trkpt>
      <trkpt lat="48.895423000" lon="3.237825000">
        <ele>72.000000</ele>
        <time>2025-07-29T20:44:36Z</time>
      </trkpt>
      <trkpt lat="48.896452000" lon="3.236752000">
        <ele>72.000000</ele>
        <time>2025-07-29T20:46:59Z</time>
      </trkpt>
      <trkpt lat="48.896678000" lon="3.237034000">
        <ele>71.000000</ele>
        <time>2025-07-29T20:47:32Z</time>
      </trkpt>
      <trkpt lat="48.897016000" lon="3.237356000">
        <ele>70.000000</ele>
        <time>2025-07-29T20:48:18Z</time>
      </trkpt>
      <trkpt lat="48.898357000" lon="3.237356000">
        <ele>70.000000</ele>
        <time>2025-07-29T20:50:52Z</time>
      </trkpt>
      <trkpt lat="48.898921000" lon="3.236605000">
        <ele>70.000000</ele>
        <time>2025-07-29T20:52:18Z</time>
      </trkpt>
      <trkpt lat="48.899866000" lon="3.235296000">
        <ele>70.000000</ele>
        <time>2025-07-29T20:54:44Z</time>
      </trkpt>
      <trkpt lat="48.900599000" lon="3.234116000">
        <ele>72.000000</ele>
        <time>2025-07-29T20:57:07Z</time>
      </trkpt>
      <trkpt lat="48.901065000" lon="3.233129000">
        <ele>71.000000</ele>
        <time>2025-07-29T20:58:38Z</time>
      </trkpt>
      <trkpt lat="48.901446000" lon="3.232228000">
        <ele>72.000000</ele>
        <time>2025-07-29T21:00:09Z</time>
      </trkpt>
      <trkpt lat="48.901855000" lon="3.231649000">
        <ele>74.000000</ele>
        <time>2025-07-29T21:01:34Z</time>
      </trkpt>
      <trkpt lat="48.902264000" lon="3.231370000">
        <ele>78.000000</ele>
        <time>2025-07-29T21:03:06Z</time>
      </trkpt>
      <trkpt lat="48.902772000" lon="3.230683000">
        <ele>81.000000</ele>
        <time>2025-07-29T21:04:55Z</time>
      </trkpt>
      <trkpt lat="48.903195000" lon="3.231026000">
        <ele>83.000000</ele>
        <time>2025-07-29T21:06:10Z</time>
      </trkpt>
      <trkpt lat="48.903814000" lon="3.230871000">
        <ele>83.000000</ele>
        <time>2025-07-29T21:07:22Z</time>
      </trkpt>
      <trkpt lat="48.903999000" lon="3.230426000">
        <ele>82.000000</ele>
        <time>2025-07-29T21:08:02Z</time>
      </trkpt>
      <trkpt lat="48.904464000" lon="3.229392000">
        <ele>84.000000</ele>
        <time>2025-07-29T21:09:57Z</time>
      </trkpt>
    </trkseg>
  </trk>
</gpx>
